TAF Text Data
IDs:
Format:
Raw Decoded Include METAR

Data at: 0514 UTC 24 Sep 2018

KTPA 240301Z 2403/2506 08004KT P6SM SCT060 SCT250
  FM241400 12006KT P6SM SCT030 SCT250
  FM241900 25006KT P6SM VCTS BKN040CB